Time;durP1;ratioP1;P1;durP2;ratioP2;P2;SDS_P1;SDS_P2;PMS_P1;PMS_P2;Temp;Humidity;BMP_temperature;BMP_pressure;BME280_temperature;BME280_humidity;BME280_pressure;Samples;Min_cycle;Max_cycle;Signal;HPM_P1;HPM_P2
2023/04/23 00:02:16;;;;;;;;;;;;;;;12.04;84.28;95865.75;5057413;28;19933;-73
2023/04/23 00:04:49;;;;;;;;;;;;;;;12.02;85.76;95873.06;5055403;28;19939;-71
2023/04/23 00:07:15;;;;;;;;;;;;;;;12.01;84.19;95855.72;5055353;28;19977;-71
2023/04/23 00:09:42;;;;;;;;;;;;;;;12.03;85.01;95871.22;5057229;28;20323;-70
2023/04/23 00:12:08;;;;;;;;;;;;;;;12.04;85.06;95872.84;5055290;28;20342;-71
2023/04/23 00:14:34;;;;;;;;;;;;;;;12.07;85.51;95875.75;5056606;28;19947;-71
2023/04/23 00:17:00;;;;;;;;;;;;;;;12.08;85.45;95873.97;5054887;28;19977;-71
2023/04/23 00:19:25;;;;;;;;;;;;;;;12.08;85.33;95871.31;5055916;28;20309;-75
2023/04/23 00:21:51;;;;;;;;;;;;;;;12.07;84.39;95867.88;5038419;28;19948;-70
2023/04/23 00:24:17;;;;;;;;;;;;;;;12.08;84.32;95866.06;5056747;28;19945;-70
2023/04/23 00:26:43;;;;;;;;;;;;;;;12.09;84.97;95876.31;5056993;28;19948;-70
2023/04/23 00:29:09;;;;;;;;;;;;;;;12.08;85.27;95876.59;5056380;28;19944;-70
2023/04/23 00:31:35;;;;;;;;;;;;;;;12.05;85.30;95880.47;5056012;28;19947;-71
2023/04/23 00:34:01;;;;;;;;;;;;;;;12.06;85.39;95886.53;5056070;28;19945;-70
2023/04/23 00:36:26;;;;;;;;;;;;;;;12.06;84.45;95887.34;5055808;28;20009;-75
2023/04/23 00:38:52;;;;;;;;;;;;;;;12.08;84.94;95897.59;5054817;28;19952;-74
2023/04/23 00:41:18;;;;;;;;;;;;;;;12.08;84.51;95894.97;5055946;28;19945;-70
2023/04/23 00:43:44;;;;;;;;;;;;;;;12.06;86.60;95894.44;5037546;28;19949;-70
2023/04/23 00:46:11;;;;;;;;;;;;;;;12.06;86.88;95903.09;5055708;28;19940;-70
2023/04/23 00:48:37;;;;;;;;;;;;;;;12.03;88.52;95903.56;5055766;28;19960;-70
2023/04/23 00:51:04;;;;;;;;;;;;;;;12.00;87.02;95890.91;5055722;28;19940;-70
2023/04/23 00:53:30;;;;;;;;;;;;;;;11.98;88.80;95898.25;5056480;28;19941;-70
2023/04/23 00:55:56;;;;;;;;;;;;;;;11.96;86.99;95895.06;5055825;28;19998;-81
2023/04/23 00:58:22;;;;;;;;;;;;;;;11.98;87.17;95898.25;5054340;28;19948;-74
2023/04/23 01:00:50;;;;;;;;;;;;;;;11.97;90.06;95915.06;5038502;28;19953;-73
2023/04/23 01:03:21;;;;;;;;;;;;;;;11.97;87.34;95896.66;5054138;28;19947;-73
2023/04/23 01:05:48;;;;;;;;;;;;;;;11.95;90.02;95909.25;5055007;28;19952;-73
2023/04/23 01:08:15;;;;;;;;;;;;;;;11.94;89.51;95899.75;5054155;28;19943;-73
2023/04/23 01:10:42;;;;;;;;;;;;;;;11.91;90.31;95906.28;5054656;28;19946;-73
2023/04/23 01:13:08;;;;;;;;;;;;;;;11.91;90.81;95910.75;5054122;28;20020;-70
2023/04/23 01:15:34;;;;;;;;;;;;;;;11.88;90.96;95909.38;5055044;28;20045;-72
2023/04/23 01:18:00;;;;;;;;;;;;;;;11.88;89.94;95905.94;5055670;28;19982;-73
2023/04/23 01:20:26;;;;;;;;;;;;;;;11.89;92.41;95918.09;5055628;28;19940;-73
2023/04/23 01:22:52;;;;;;;;;;;;;;;11.88;90.67;95904.13;5055922;28;19940;-73
2023/04/23 01:25:18;;;;;;;;;;;;;;;11.86;92.34;95914.03;5054970;28;19951;-73
2023/04/23 01:27:44;;;;;;;;;;;;;;;11.85;90.31;95901.16;5055309;28;19939;-73
2023/04/23 01:30:10;;;;;;;;;;;;;;;11.86;90.27;95897.50;5054963;28;19946;-73
2023/04/23 01:32:38;;;;;;;;;;;;;;;11.87;90.60;95905.16;5055393;28;19945;-71
2023/04/23 01:35:04;;;;;;;;;;;;;;;11.88;90.08;95898.88;5053724;28;19945;-74
2023/04/23 01:37:30;;;;;;;;;;;;;;;11.90;91.44;95899.44;5054729;28;19959;-74
2023/04/23 01:39:56;;;;;;;;;;;;;;;11.90;91.51;95903.91;5054794;28;19935;-74
2023/04/23 01:42:22;;;;;;;;;;;;;;;11.87;89.93;95910.41;5054813;28;20482;-74
2023/04/23 01:44:48;;;;;;;;;;;;;;;11.87;92.35;95915.66;5054727;28;19952;-74
2023/04/23 01:47:14;;;;;;;;;;;;;;;11.87;91.01;95899.09;5054672;28;19938;-74
2023/04/23 01:49:40;;;;;;;;;;;;;;;11.84;90.62;95889.84;5055135;28;20361;-73
2023/04/23 01:52:06;;;;;;;;;;;;;;;11.83;91.62;95900.63;5054903;28;19944;-75
2023/04/23 01:54:32;;;;;;;;;;;;;;;11.79;91.86;95916.03;5053427;28;20007;-75
2023/04/23 01:56:57;;;;;;;;;;;;;;;11.76;92.61;95927.84;5053400;28;19964;-75
2023/04/23 01:59:23;;;;;;;;;;;;;;;11.75;93.47;95933.31;5053224;28;19981;-75
2023/04/23 02:01:49;;;;;;;;;;;;;;;11.71;91.83;95927.72;5054364;28;19949;-75
2023/04/23 02:04:15;;;;;;;;;;;;;;;11.70;91.20;95930.63;5054386;28;19943;-75
2023/04/23 02:06:43;;;;;;;;;;;;;;;11.68;92.35;95925.59;5054311;28;19949;-75
2023/04/23 02:09:09;;;;;;;;;;;;;;;11.67;92.35;95926.59;5036457;28;20416;-79
2023/04/23 02:11:35;;;;;;;;;;;;;;;11.64;90.82;95915.81;5052998;28;19954;-71
2023/04/23 02:14:01;;;;;;;;;;;;;;;11.64;91.79;95919.22;5036374;28;19944;-71
2023/04/23 02:16:27;;;;;;;;;;;;;;;11.64;90.76;95915.81;5054011;28;19975;-71
2023/04/23 02:18:54;;;;;;;;;;;;;;;11.64;90.99;95924.47;5053468;28;19988;-71
2023/04/23 02:21:21;;;;;;;;;;;;;;;11.65;91.93;95920.00;5054068;28;20419;-71
2023/04/23 02:23:47;;;;;;;;;;;;;;;11.64;92.42;95921.06;5054524;28;19963;-71
2023/04/23 02:26:13;;;;;;;;;;;;;;;11.61;92.25;95919.69;5054555;28;19940;-71
2023/04/23 02:28:39;;;;;;;;;;;;;;;11.59;92.91;95911.28;5053046;28;20284;-71
2023/04/23 02:31:05;;;;;;;;;;;;;;;11.56;92.85;95904.63;5053976;28;20390;-72
2023/04/23 02:33:31;;;;;;;;;;;;;;;11.58;93.53;95905.19;5053140;28;19939;-72
2023/04/23 02:35:57;;;;;;;;;;;;;;;11.60;93.34;95918.09;5052799;28;19955;-72
2023/04/23 02:38:23;;;;;;;;;;;;;;;11.62;93.81;95918.66;5036761;28;19964;-72
2023/04/23 02:40:49;;;;;;;;;;;;;;;11.61;93.57;95917.06;5035859;28;19949;-72
2023/04/23 02:43:14;;;;;;;;;;;;;;;11.59;94.38;95924.41;5053697;28;20439;-72
2023/04/23 02:45:40;;;;;;;;;;;;;;;11.57;94.09;95921.22;5053237;28;19949;-74
2023/04/23 02:48:06;;;;;;;;;;;;;;;11.58;94.46;95920.16;5054125;28;19936;-72
2023/04/23 02:50:32;;;;;;;;;;;;;;;11.58;94.31;95914.91;5053624;28;19938;-73
2023/04/23 02:52:58;;;;;;;;;;;;;;;11.55;96.29;95920.66;5053582;28;19946;-72
2023/04/23 02:55:24;;;;;;;;;;;;;;;11.46;95.63;95924.69;5053836;28;19939;-73
2023/04/23 02:57:50;;;;;;;;;;;;;;;11.42;96.71;95934.06;5053482;28;19955;-72
2023/04/23 03:00:17;;;;;;;;;;;;;;;11.41;96.98;95922.75;5053540;28;20000;-72
2023/04/23 03:02:42;;;;;;;;;;;;;;;11.40;98.73;95917.75;5054306;28;20299;-73
2023/04/23 03:05:08;;;;;;;;;;;;;;;11.37;97.08;95908.50;5054358;28;19975;-72
2023/04/23 03:07:34;;;;;;;;;;;;;;;11.37;97.56;95911.13;5054719;28;19996;-72
2023/04/23 03:10:00;;;;;;;;;;;;;;;11.38;98.31;95915.34;5057655;28;19938;-72
2023/04/23 03:12:26;;;;;;;;;;;;;;;11.37;97.54;95901.44;5058066;28;19951;-74
2023/04/23 03:14:52;;;;;;;;;;;;;;;11.38;98.79;95902.22;5057372;28;20040;-73
2023/04/23 03:17:17;;;;;;;;;;;;;;;11.40;98.56;95896.72;5058244;28;20441;-71
2023/04/23 03:19:43;;;;;;;;;;;;;;;11.39;98.65;95898.56;5057979;28;19983;-72
2023/04/23 03:22:09;;;;;;;;;;;;;;;11.41;98.93;95898.34;5057350;28;20005;-72
2023/04/23 03:24:35;;;;;;;;;;;;;;;11.41;98.65;95898.34;5057885;28;20011;-72
2023/04/23 03:27:01;;;;;;;;;;;;;;;11.41;99.13;95898.34;5056151;28;20008;-72
2023/04/23 03:29:27;;;;;;;;;;;;;;;11.40;99.68;95900.16;5056611;28;19942;-73
2023/04/23 03:31:53;;;;;;;;;;;;;;;11.40;98.87;95902.78;5056750;28;19942;-72
2023/04/23 03:34:18;;;;;;;;;;;;;;;11.39;99.06;95898.56;5056613;28;20036;-71
2023/04/23 03:36:47;;;;;;;;;;;;;;;11.37;98.91;95906.69;5039936;28;19961;-72
2023/04/23 03:39:13;;;;;;;;;;;;;;;11.38;99.14;95913.53;5056503;28;19950;-72
2023/04/23 03:41:39;;;;;;;;;;;;;;;11.38;99.58;95910.09;5056533;28;19949;-70
2023/04/23 03:44:05;;;;;;;;;;;;;;;11.36;99.69;95907.72;5057075;28;20033;-73
2023/04/23 03:46:31;;;;;;;;;;;;;;;11.35;99.86;95906.13;5057749;28;19945;-73
2023/04/23 03:48:57;;;;;;;;;;;;;;;11.30;100.00;95910.50;5056890;28;19946;-73
2023/04/23 03:51:22;;;;;;;;;;;;;;;11.23;100.00;95912.44;5057641;28;19939;-74
2023/04/23 03:53:49;;;;;;;;;;;;;;;11.21;100.00;95910.06;5057321;28;19948;-72
2023/04/23 03:56:15;;;;;;;;;;;;;;;11.15;100.00;95906.56;5056670;28;19950;-73
2023/04/23 03:58:41;;;;;;;;;;;;;;;11.13;100.00;95923.56;5057123;28;19963;-72
2023/04/23 04:01:07;;;;;;;;;;;;;;;11.14;100.00;95918.06;5056758;28;19958;-70
2023/04/23 04:03:33;;;;;;;;;;;;;;;11.12;100.00;95916.72;5056135;28;19981;-73
2023/04/23 04:05:59;;;;;;;;;;;;;;;11.10;100.00;95916.94;5055393;28;19958;-73
2023/04/23 04:08:25;;;;;;;;;;;;;;;11.09;100.00;95923.25;5056629;28;19990;-73
2023/04/23 04:10:51;;;;;;;;;;;;;;;11.09;100.00;95917.19;5056474;28;19941;-73
2023/04/23 04:13:18;;;;;;;;;;;;;;;11.09;100.00;95907.50;5055274;28;19942;-73
2023/04/23 04:15:44;;;;;;;;;;;;;;;11.10;100.00;95914.31;5056194;28;20430;-73
2023/04/23 04:18:10;;;;;;;;;;;;;;;11.10;100.00;95908.28;5056513;28;19974;-71
2023/04/23 04:20:36;;;;;;;;;;;;;;;11.04;100.00;95909.22;5055296;28;19939;-73
2023/04/23 04:23:02;;;;;;;;;;;;;;;11.02;100.00;95912.06;5054835;28;19942;-73
2023/04/23 04:25:28;;;;;;;;;;;;;;;11.02;100.00;95904.19;5056959;28;20336;-74
2023/04/23 04:27:56;;;;;;;;;;;;;;;11.02;100.00;95903.41;5056421;28;20297;-73
2023/04/23 04:30:23;;;;;;;;;;;;;;;11.03;100.00;95902.38;5056028;28;19949;-73
2023/04/23 04:32:50;;;;;;;;;;;;;;;11.03;100.00;95905.81;5056009;28;20321;-73
2023/04/23 04:35:16;;;;;;;;;;;;;;;11.00;100.00;95914.13;5056036;28;19951;-73
2023/04/23 04:37:42;;;;;;;;;;;;;;;10.97;100.00;95915.41;5055769;28;19966;-73
2023/04/23 04:40:10;;;;;;;;;;;;;;;10.96;100.00;95910.38;5056005;28;19947;-70
2023/04/23 04:42:36;;;;;;;;;;;;;;;10.94;100.00;95912.44;5054904;28;20008;-70
2023/04/23 04:45:03;;;;;;;;;;;;;;;10.93;100.00;95909.00;5055377;28;19952;-70
2023/04/23 04:47:29;;;;;;;;;;;;;;;10.93;100.00;95903.78;5055819;28;19938;-70
2023/04/23 04:49:56;;;;;;;;;;;;;;;10.93;100.00;95908.22;5056627;28;20420;-70
2023/04/23 04:52:23;;;;;;;;;;;;;;;10.95;100.00;95911.41;5055764;28;19940;-70
2023/04/23 04:54:49;;;;;;;;;;;;;;;10.91;100.00;95902.41;5056233;28;20416;-79
2023/04/23 04:57:15;;;;;;;;;;;;;;;10.89;100.00;95901.84;5055577;28;19994;-73
2023/04/23 04:59:41;;;;;;;;;;;;;;;10.90;100.00;95906.09;5054453;28;19944;-79
2023/04/23 05:02:06;;;;;;;;;;;;;;;10.87;100.00;95909.16;5056097;28;19956;-79
2023/04/23 05:04:32;;;;;;;;;;;;;;;10.87;100.00;95919.66;5054824;28;20331;-79
2023/04/23 05:06:58;;;;;;;;;;;;;;;10.84;100.00;95907.81;5055432;28;19952;-79
2023/04/23 05:09:24;;;;;;;;;;;;;;;10.85;100.00;95917.25;5055638;28;19938;-80
2023/04/23 05:11:50;;;;;;;;;;;;;;;10.91;100.00;95915.53;5055367;28;20419;-79
2023/04/23 05:14:16;;;;;;;;;;;;;;;10.95;100.00;95908.78;5055335;28;19963;-70
2023/04/23 05:16:42;;;;;;;;;;;;;;;11.01;100.00;95905.25;5055152;28;20427;-72
2023/04/23 05:19:08;;;;;;;;;;;;;;;11.08;100.00;95910.34;5055965;28;20014;-73
2023/04/23 05:21:34;;;;;;;;;;;;;;;11.10;100.00;95911.69;5055889;28;19946;-73
2023/04/23 05:24:00;;;;;;;;;;;;;;;11.21;100.00;95909.25;5055067;28;20383;-73
2023/04/23 05:26:26;;;;;;;;;;;;;;;11.31;100.00;95917.31;5054991;28;19943;-73
2023/04/23 05:28:52;;;;;;;;;;;;;;;11.43;100.00;95899.69;5055002;28;19948;-73
2023/04/23 05:31:18;;;;;;;;;;;;;;;11.50;100.00;95902.97;5055396;28;19944;-77
2023/04/23 05:33:45;;;;;;;;;;;;;;;11.48;99.63;95901.59;5037120;28;20327;-81
2023/04/23 05:36:11;;;;;;;;;;;;;;;11.40;99.38;95905.41;5053642;28;19954;-73
2023/04/23 05:38:37;;;;;;;;;;;;;;;11.39;100.00;95919.56;5054726;28;20403;-73
2023/04/23 05:41:03;;;;;;;;;;;;;;;11.45;99.32;95916.00;5055276;28;20032;-72
2023/04/23 05:43:29;;;;;;;;;;;;;;;11.88;99.88;95911.19;5054738;28;19979;-73
2023/04/23 05:45:55;;;;;;;;;;;;;;;12.35;97.50;95900.34;5055509;28;19945;-73
2023/04/23 05:48:21;;;;;;;;;;;;;;;13.08;94.09;95887.00;5054874;28;19939;-72
2023/04/23 05:50:48;;;;;;;;;;;;;;;13.77;89.72;95858.19;5054602;28;19941;-73
2023/04/23 05:53:14;;;;;;;;;;;;;;;14.16;85.39;95831.56;5054062;28;19945;-78
2023/04/23 05:55:40;;;;;;;;;;;;;;;14.39;85.86;95843.53;5053836;28;20057;-78
2023/04/23 05:58:06;;;;;;;;;;;;;;;14.69;84.50;95831.56;5053138;28;19962;-79
2023/04/23 06:00:34;;;;;;;;;;;;;;;14.58;81.54;95814.88;5053983;28;19984;-78
2023/04/23 06:02:59;;;;;;;;;;;;;;;14.47;82.90;95830.91;5036484;28;20274;-78
2023/04/23 06:05:25;;;;;;;;;;;;;;;14.30;81.03;95813.44;5054293;28;19937;-79
2023/04/23 06:07:52;;;;;;;;;;;;;;;13.81;83.35;95843.44;5053735;28;19942;-74
2023/04/23 06:10:17;;;;;;;;;;;;;;;13.47;85.19;95861.38;5054233;28;19943;-72
2023/04/23 06:12:43;;;;;;;;;;;;;;;13.33;86.50;95878.63;5036294;28;19947;-73
2023/04/23 06:15:10;;;;;;;;;;;;;;;13.17;86.11;95869.75;5053987;28;20389;-73
2023/04/23 06:17:36;;;;;;;;;;;;;;;13.00;87.37;95886.44;5054559;28;20315;-73
2023/04/23 06:20:03;;;;;;;;;;;;;;;12.82;88.25;95891.22;5054011;28;20384;-73
2023/04/23 06:22:30;;;;;;;;;;;;;;;12.61;89.03;95887.53;5053956;28;19938;-74
2023/04/23 06:24:56;;;;;;;;;;;;;;;12.60;89.30;95892.00;5054557;28;19945;-73
2023/04/23 06:27:21;;;;;;;;;;;;;;;12.56;89.01;95885.66;5054699;28;20268;-73
2023/04/23 06:29:47;;;;;;;;;;;;;;;12.52;90.07;95877.44;5053936;28;19964;-73
2023/04/23 06:32:13;;;;;;;;;;;;;;;12.77;89.15;95881.44;5052604;28;19994;-72
2023/04/23 06:34:39;;;;;;;;;;;;;;;13.24;86.88;95870.34;5054300;28;19947;-73
2023/04/23 06:37:05;;;;;;;;;;;;;;;13.60;85.96;95857.53;5054260;28;20052;-73
2023/04/23 06:39:31;;;;;;;;;;;;;;;13.84;83.65;95849.25;5054199;28;20419;-73
2023/04/23 06:41:57;;;;;;;;;;;;;;;13.72;84.30;95858.16;5053852;28;20406;-72
2023/04/23 06:44:22;;;;;;;;;;;;;;;13.29;83.75;95853.81;5053675;28;19941;-72
2023/04/23 06:46:48;;;;;;;;;;;;;;;12.95;84.92;95864.50;5053619;28;19994;-73
2023/04/23 06:49:14;;;;;;;;;;;;;;;12.92;86.32;95872.91;5054442;28;19944;-70
2023/04/23 06:51:40;;;;;;;;;;;;;;;12.92;86.87;95865.81;5052368;28;20306;-70
2023/04/23 06:54:06;;;;;;;;;;;;;;;12.79;86.50;95859.09;5036568;28;19989;-71
2023/04/23 06:56:32;;;;;;;;;;;;;;;12.74;88.25;95877.44;5052373;28;19941;-71
2023/04/23 06:58:58;;;;;;;;;;;;;;;13.08;87.02;95858.88;5035647;28;19983;-71
2023/04/23 07:01:23;;;;;;;;;;;;;;;13.63;85.37;95835.13;5052232;28;20315;-70
2023/04/23 07:03:53;;;;;;;;;;;;;;;14.09;82.10;95817.00;5053532;28;19935;-72
2023/04/23 07:06:19;;;;;;;;;;;;;;;14.04;79.09;95799.31;5053807;28;19951;-74
2023/04/23 07:08:45;;;;;;;;;;;;;;;13.82;81.98;95817.91;5053358;28;19939;-74
2023/04/23 07:11:11;;;;;;;;;;;;;;;13.73;82.01;95822.03;5036400;28;19947;-73
2023/04/23 07:13:37;;;;;;;;;;;;;;;13.75;82.85;95831.31;5052168;28;19987;-74
2023/04/23 07:16:03;;;;;;;;;;;;;;;14.07;83.26;95824.38;5053115;28;20081;-73
2023/04/23 07:18:29;;;;;;;;;;;;;;;14.44;80.36;95805.84;5054022;28;20043;-73
2023/04/23 07:20:55;;;;;;;;;;;;;;;14.77;79.45;95798.59;5053270;28;19943;-74
2023/04/23 07:23:21;;;;;;;;;;;;;;;15.01;77.62;95785.69;5053243;28;20026;-72
2023/04/23 07:25:46;;;;;;;;;;;;;;;15.01;77.04;95785.69;5054145;28;19933;-73
2023/04/23 07:28:12;;;;;;;;;;;;;;;15.03;76.32;95773.03;5052050;28;19951;-71
2023/04/23 07:30:39;;;;;;;;;;;;;;;15.11;76.13;95775.16;5054083;28;19951;-72
2023/04/23 07:33:04;;;;;;;;;;;;;;;14.98;75.02;95763.25;5053244;28;19989;-72
2023/04/23 07:35:30;;;;;;;;;;;;;;;14.74;76.63;95781.44;5052878;28;19946;-72
2023/04/23 07:37:56;;;;;;;;;;;;;;;14.89;75.89;95769.31;5051813;28;20409;-72
2023/04/23 07:40:23;;;;;;;;;;;;;;;15.14;76.89;95771.19;5053182;28;19955;-74
2023/04/23 07:42:49;;;;;;;;;;;;;;;15.27;74.71;95754.03;5053909;28;19949;-73
2023/04/23 07:45:15;;;;;;;;;;;;;;;15.03;73.83;95736.06;5052640;28;19946;-72
2023/04/23 07:47:41;;;;;;;;;;;;;;;14.97;75.61;95758.22;5053674;28;19947;-72
2023/04/23 07:50:07;;;;;;;;;;;;;;;14.96;73.48;95732.91;5051825;28;19944;-72
2023/04/23 07:52:33;;;;;;;;;;;;;;;14.87;73.87;95739.75;5053011;28;19945;-72
2023/04/23 07:54:59;;;;;;;;;;;;;;;14.76;74.62;95754.75;5055639;28;19935;-71
2023/04/23 07:57:25;;;;;;;;;;;;;;;14.57;75.06;95757.09;5056682;28;20025;-72
2023/04/23 07:59:51;;;;;;;;;;;;;;;14.33;75.11;95754.09;5057526;28;19996;-72
2023/04/23 08:02:22;;;;;;;;;;;;;;;14.16;74.45;95747.16;5056682;28;19938;-73
2023/04/23 08:04:51;;;;;;;;;;;;;;;14.18;77.21;95774.06;5056637;28;19946;-73
2023/04/23 08:07:18;;;;;;;;;;;;;;;14.26;78.58;95780.72;5057284;28;19950;-72
2023/04/23 08:09:43;;;;;;;;;;;;;;;14.33;75.92;95749.59;5056976;28;19944;-73
2023/04/23 08:12:09;;;;;;;;;;;;;;;14.40;75.43;95752.81;5056711;28;20404;-72
2023/04/23 08:14:35;;;;;;;;;;;;;;;14.41;76.35;95756.25;5056852;28;19939;-73
2023/04/23 08:17:01;;;;;;;;;;;;;;;14.52;74.52;95736.75;5056140;28;20312;-73
2023/04/23 08:19:30;;;;;;;;;;;;;;;14.78;75.61;95755.28;5055157;28;20425;-77
2023/04/23 08:21:56;;;;;;;;;;;;;;;15.11;73.61;95730.25;5054997;28;20347;-73
2023/04/23 08:24:22;;;;;;;;;;;;;;;15.52;73.07;95722.31;5039185;28;20387;-73
2023/04/23 08:26:48;;;;;;;;;;;;;;;15.78;69.33;95677.34;5055786;28;19987;-73
2023/04/23 08:29:14;;;;;;;;;;;;;;;15.98;69.76;95687.84;5056152;28;20517;-73
2023/04/23 08:31:40;;;;;;;;;;;;;;;16.21;68.81;95691.72;5056096;28;19941;-73
2023/04/23 08:34:06;;;;;;;;;;;;;;;16.27;67.28;95668.66;5056661;28;20376;-73
2023/04/23 08:36:32;;;;;;;;;;;;;;;16.19;66.93;95669.22;5055981;28;19960;-82
2023/04/23 08:38:59;;;;;;;;;;;;;;;16.02;67.77;95678.31;5038952;28;19968;-76
2023/04/23 08:41:29;;;;;;;;;;;;;;;15.92;66.38;95667.00;5056024;28;19942;-76
2023/04/23 08:44:03;;;;;;;;;;;;;;;15.77;64.69;95670.47;5038855;28;19944;-76
2023/04/23 08:46:31;;;;;;;;;;;;;;;15.77;66.83;95733.91;5055290;28;19945;-76
2023/04/23 08:48:58;;;;;;;;;;;;;;;15.89;68.25;95746.84;5055452;28;19934;-76
2023/04/23 08:51:24;;;;;;;;;;;;;;;16.02;65.31;95736.50;5056291;28;19943;-76
2023/04/23 08:53:54;;;;;;;;;;;;;;;16.12;65.32;95751.53;5054591;28;19943;-72
2023/04/23 08:56:21;;;;;;;;;;;;;;;16.26;64.33;95746.47;5054422;28;19946;-75
2023/04/23 08:58:48;;;;;;;;;;;;;;;16.25;63.12;95734.28;5055498;28;20438;-71
2023/04/23 09:01:15;;;;;;;;;;;;;;;16.23;61.64;95731.94;5038641;28;19959;-71
2023/04/23 09:03:41;;;;;;;;;;;;;;;16.35;65.74;95760.69;5055524;28;19935;-71
2023/04/23 09:06:08;;;;;;;;;;;;;;;16.24;62.41;95738.78;5036885;28;19960;-71
2023/04/23 09:08:34;;;;;;;;;;;;;;;16.39;64.80;95751.16;5055010;28;19939;-72
2023/04/23 09:11:01;;;;;;;;;;;;;;;16.53;63.02;95738.13;5055984;28;20298;-71
2023/04/23 09:13:28;;;;;;;;;;;;;;;16.58;61.44;95742.59;5038299;28;19940;-82
2023/04/23 09:15:54;;;;;;;;;;;;;;;16.64;59.39;95718.47;5055160;28;20443;-75
2023/04/23 09:18:20;;;;;;;;;;;;;;;16.76;58.29;95715.50;5055148;28;19954;-75
2023/04/23 09:20:46;;;;;;;;;;;;;;;16.95;62.37;95728.13;5055232;28;19950;-75
2023/04/23 09:23:15;;;;;;;;;;;;;;;17.06;59.45;95724.31;5055392;28;19941;-75
2023/04/23 09:25:41;;;;;;;;;;;;;;;17.15;58.62;95725.31;5055337;28;19940;-74
2023/04/23 09:28:09;;;;;;;;;;;;;;;17.15;59.41;95733.25;5053841;28;19946;-75
2023/04/23 09:30:37;;;;;;;;;;;;;;;17.03;60.33;95733.63;5055002;28;19950;-71
2023/04/23 09:33:04;;;;;;;;;;;;;;;17.19;61.37;95736.16;5053809;28;20424;-73
2023/04/23 09:35:31;;;;;;;;;;;;;;;17.21;57.41;95716.25;5037140;28;19947;-75
2023/04/23 09:37:57;;;;;;;;;;;;;;;17.29;57.92;95725.47;5054935;28;19959;-75
2023/04/23 09:40:25;;;;;;;;;;;;;;;17.45;57.88;95708.38;5053601;28;19966;-75
2023/04/23 09:42:53;;;;;;;;;;;;;;;17.45;57.58;95710.22;5054788;28;19964;-75
2023/04/23 09:45:19;;;;;;;;;;;;;;;17.45;57.60;95711.03;5054750;28;19939;-75
2023/04/23 09:47:50;;;;;;;;;;;;;;;17.54;58.74;95716.50;5055456;28;19940;-75
2023/04/23 09:50:16;;;;;;;;;;;;;;;17.66;58.20;95705.53;5055509;28;20010;-73
2023/04/23 09:52:42;;;;;;;;;;;;;;;17.63;57.00;95711.38;5054798;28;20052;-73
2023/04/23 09:55:08;;;;;;;;;;;;;;;17.55;55.18;95696.06;5054410;28;19942;-73
2023/04/23 09:57:38;;;;;;;;;;;;;;;17.66;55.01;95694.91;5055275;28;19937;-73
2023/04/23 10:00:12;;;;;;;;;;;;;;;17.78;53.69;95699.81;5054293;28;19956;-73
2023/04/23 10:02:38;;;;;;;;;;;;;;;17.87;56.51;95705.31;5055161;28;19951;-73
2023/04/23 10:05:14;;;;;;;;;;;;;;;17.84;54.46;95696.84;5054891;28;19940;-73
2023/04/23 10:07:40;;;;;;;;;;;;;;;17.58;55.44;95700.84;5053655;28;19964;-71
2023/04/23 10:10:07;;;;;;;;;;;;;;;17.49;55.88;95694.53;5037314;28;19947;-82
2023/04/23 10:12:33;;;;;;;;;;;;;;;17.35;56.24;95700.50;5053251;28;20419;-75
2023/04/23 10:14:59;;;;;;;;;;;;;;;17.19;58.48;95694.53;5053991;28;19942;-75
2023/04/23 10:17:25;;;;;;;;;;;;;;;17.25;57.51;95688.13;5053861;28;20045;-75
2023/04/23 10:19:51;;;;;;;;;;;;;;;17.27;56.63;95687.06;5054799;28;19987;-75
2023/04/23 10:22:18;;;;;;;;;;;;;;;17.40;55.76;95681.13;5054042;28;20380;-75
2023/04/23 10:24:45;;;;;;;;;;;;;;;17.56;58.27;95681.75;5054169;28;19936;-75
2023/04/23 10:27:14;;;;;;;;;;;;;;;17.65;55.49;95682.72;5054541;28;19932;-74
2023/04/23 10:29:40;;;;;;;;;;;;;;;17.63;55.22;95671.59;5052715;28;19951;-74
2023/04/23 10:32:06;;;;;;;;;;;;;;;17.61;53.97;95666.56;5053532;28;19938;-74
2023/04/23 10:34:32;;;;;;;;;;;;;;;17.69;53.40;95670.47;5054603;28;19942;-73
2023/04/23 10:36:59;;;;;;;;;;;;;;;17.55;54.47;95670.34;5052411;28;20332;-75
2023/04/23 10:39:26;;;;;;;;;;;;;;;17.71;56.05;95660.38;5053232;28;19954;-74
2023/04/23 10:41:53;;;;;;;;;;;;;;;18.00;52.90;95648.94;5053893;28;20356;-75
2023/04/23 10:44:22;;;;;;;;;;;;;;;18.43;57.21;95664.81;5053693;28;19941;-72
2023/04/23 10:46:52;;;;;;;;;;;;;;;18.70;52.05;95648.22;5053782;28;19943;-74
2023/04/23 10:49:18;;;;;;;;;;;;;;;19.01;55.38;95650.44;5054210;28;19946;-73
2023/04/23 10:51:45;;;;;;;;;;;;;;;19.28;52.49;95647.06;5053511;28;19932;-73
2023/04/23 10:54:15;;;;;;;;;;;;;;;19.51;54.15;95655.16;5053322;28;19943;-74
2023/04/23 10:56:41;;;;;;;;;;;;;;;19.75;50.51;95636.41;5054073;28;19947;-73
2023/04/23 10:59:19;;;;;;;;;;;;;;;19.67;51.51;95643.16;5053141;28;19974;-73
2023/04/23 11:01:46;;;;;;;;;;;;;;;19.61;49.64;95644.31;5052334;28;20394;-73
2023/04/23 11:04:28;;;;;;;;;;;;;;;19.43;51.54;95646.00;5053821;28;19935;-77
2023/04/23 11:07:03;;;;;;;;;;;;;;;19.39;52.14;95639.69;5053110;28;19940;-75
2023/04/23 11:09:32;;;;;;;;;;;;;;;19.59;50.38;95638.50;5053751;28;19941;-75
2023/04/23 11:11:58;;;;;;;;;;;;;;;19.71;50.67;95651.38;5053398;28;20413;-75
2023/04/23 11:14:35;;;;;;;;;;;;;;;19.81;49.92;95632.56;5054138;28;19949;-75
2023/04/23 11:17:01;;;;;;;;;;;;;;;19.83;49.87;95630.38;5053641;28;20337;-75
2023/04/23 11:19:28;;;;;;;;;;;;;;;19.92;50.86;95625.16;5031440;28;20075;-75
2023/04/23 11:21:57;;;;;;;;;;;;;;;19.93;47.90;95619.53;5031893;28;20449;-72
2023/04/23 11:24:25;;;;;;;;;;;;;;;19.83;50.34;95627.72;5015361;28;19940;-76
2023/04/23 11:26:53;;;;;;;;;;;;;;;19.79;50.75;95614.22;5031332;28;20429;-77
2023/04/23 11:29:21;;;;;;;;;;;;;;;19.88;51.95;95622.28;5017331;28;19945;-77
2023/04/23 11:31:47;;;;;;;;;;;;;;;20.03;49.35;95613.19;5035278;28;19935;-76
2023/04/23 11:34:14;;;;;;;;;;;;;;;20.07;49.38;95608.84;5035347;28;19954;-76
2023/04/23 11:36:40;;;;;;;;;;;;;;;20.15;50.11;95602.81;5019269;28;19965;-77
2023/04/23 11:39:07;;;;;;;;;;;;;;;20.22;48.33;95586.44;5018651;28;19968;-72
2023/04/23 11:41:34;;;;;;;;;;;;;;;20.37;48.94;95580.78;5035357;28;20336;-80
2023/04/23 11:43:59;;;;;;;;;;;;;;;20.27;49.34;95583.69;5019115;28;20047;-72
2023/04/23 11:46:25;;;;;;;;;;;;;;;20.10;48.02;95583.53;5019313;28;19944;-72
2023/04/23 11:48:51;;;;;;;;;;;;;;;19.95;48.38;95587.28;5035721;28;20368;-73
2023/04/23 11:51:17;;;;;;;;;;;;;;;19.85;49.07;95578.44;5053173;28;19948;-72
2023/04/23 11:53:45;;;;;;;;;;;;;;;19.88;49.09;95582.38;5056393;28;20040;-72
2023/04/23 11:56:11;;;;;;;;;;;;;;;19.76;49.86;95582.09;5039019;28;19948;-72
2023/04/23 11:58:37;;;;;;;;;;;;;;;19.85;49.28;95588.31;5056762;28;20467;-73
2023/04/23 12:01:03;;;;;;;;;;;;;;;19.78;48.82;95577.25;5039736;28;19942;-72
2023/04/23 12:03:29;;;;;;;;;;;;;;;19.60;48.53;95579.72;5056655;28;20420;-73
2023/04/23 12:05:55;;;;;;;;;;;;;;;19.49;49.85;95575.69;5055778;28;20408;-72
2023/04/23 12:08:21;;;;;;;;;;;;;;;19.32;49.63;95572.81;5056244;28;19937;-72
2023/04/23 12:10:52;;;;;;;;;;;;;;;19.27;49.10;95563.84;5039479;28;20415;-73
2023/04/23 12:13:22;;;;;;;;;;;;;;;19.53;52.06;95571.34;5055390;28;19943;-72
2023/04/23 12:15:56;;;;;;;;;;;;;;;19.86;49.61;95552.63;5056752;28;19962;-74
2023/04/23 12:18:27;;;;;;;;;;;;;;;20.12;49.46;95546.75;5056956;28;20380;-72
2023/04/23 12:20:53;;;;;;;;;;;;;;;20.16;47.61;95537.06;5039298;28;19941;-71
2023/04/23 12:23:25;;;;;;;;;;;;;;;20.32;46.66;95532.19;5055144;28;20041;-72
2023/04/23 12:25:53;;;;;;;;;;;;;;;19.92;46.21;95534.69;5039265;28;19944;-72
2023/04/23 12:28:23;;;;;;;;;;;;;;;19.86;47.98;95532.13;5056348;28;19937;-71
2023/04/23 12:30:49;;;;;;;;;;;;;;;19.80;48.96;95535.19;5056358;28;19936;-72
2023/04/23 12:33:15;;;;;;;;;;;;;;;19.61;48.88;95537.94;5054920;28;19953;-71
2023/04/23 12:35:49;;;;;;;;;;;;;;;19.52;48.78;95537.06;5055593;28;19949;-79
2023/04/23 12:38:24;;;;;;;;;;;;;;;19.50;48.34;95542.69;5055722;28;19943;-74
2023/04/23 12:40:51;;;;;;;;;;;;;;;19.64;47.35;95532.81;5054184;28;19962;-73
2023/04/23 12:43:16;;;;;;;;;;;;;;;19.63;47.46;95535.78;5055241;28;20319;-73